Crawfordsville, IN (47938)

5:57 PM EDT on July 30, 2016 (GMT -0400)
2 Miles West of Crawfordsville | | Change Station

Elev 725 ft 40.04 °N, 86.95 °W | Updated 13 seconds ago

Clear
Clear
82.9 °F
Feels Like 87 °F
N
2.5
Wind Variable Wind from ENE
Gusts 4.9 mph

Today
High -- | Low -- °F
--% Chance of Precip.
Yesterday
High -- | Low -- °F
Precip. -- in
Pressure 29.93 in
Visibility 10.0 miles
Clouds Clear
Heat Index 87 °F
Dew Point 70 °F
Humidity 65%
Rainfall 0.00 in
Snow Depth Not available.
6:44 AM 9:02 PM
Waning Crescent, 11% visible
METAR KLAF 302154Z 28005KT 10SM CLR 27/19 A2994 RMK AO2 SLP133 T02720194
Pressure 29.93 in
Visibility 10.0 miles
Clouds Clear
Heat Index 87 °F
Dew Point 70 °F
Humidity 65%
Rainfall 0.00 in
Snow Depth Not available.
6:44 AM 9:02 PM
Waning Crescent, 11% visible
METAR KLAF 302154Z 28005KT 10SM CLR 27/19 A2994 RMK AO2 SLP133 T02720194

10-Day Weather Forecast

Almanac

Astronomy

Jul. 30, 2016 Rise Set
Actual Time
Civil Twilight
Nautical Twilight
Astronomical Twilight
Moon
Length of Visible Light
Length of Day
Tomorrow will be .
, % of the Moon is Illuminated

Today's Extremes

State Highs State Lows

Community

WunderPhotos

Upload Photos

1,928,657 photos uploaded!

WunderBlog® & News

Nearby

Air Quality

  Air Quality AQ Index Pollutant
Not available.

Snow Depth

Station Depth Elevation

Earthquake Activity

City Distance Mag. Time & Date
Minimum magnitude displayed is 2.5.

Coastal Water Temperatures

Place Temperature

Stations

Nearby Weather Stations

Station Location Temp. Windchill Dew Point Humidity Wind Precip. Elev Updated Type
                   

Watches & Warnings

There are currently no watches in effect.